sensor_id;sensor_type;location;lat;lon;timestamp;temperature;humidity
18506;DHT22;9382;53.242;10.438;2023-03-01T00:02:08;-2.70;99.90
18506;DHT22;9382;53.242;10.438;2023-03-01T00:04:34;-2.70;99.90
18506;DHT22;9382;53.242;10.438;2023-03-01T00:07:03;-2.70;99.90
18506;DHT22;9382;53.242;10.438;2023-03-01T00:09:29;-2.60;99.90
18506;DHT22;9382;53.242;10.438;2023-03-01T00:11:56;-2.60;99.90
18506;DHT22;9382;53.242;10.438;2023-03-01T00:14:23;-2.60;99.90
18506;DHT22;9382;53.242;10.438;2023-03-01T00:16:49;-2.60;99.90
18506;DHT22;9382;53.242;10.438;2023-03-01T00:19:18;-2.60;99.90
18506;DHT22;9382;53.242;10.438;2023-03-01T00:21:45;-2.50;99.90
18506;DHT22;9382;53.242;10.438;2023-03-01T00:24:14;-2.50;99.90
18506;DHT22;9382;53.242;10.438;2023-03-01T00:26:40;-2.50;99.90
18506;DHT22;9382;53.242;10.438;2023-03-01T00:29:07;-2.50;99.90
18506;DHT22;9382;53.242;10.438;2023-03-01T00:31:34;-2.60;99.90
18506;DHT22;9382;53.242;10.438;2023-03-01T00:34:03;-2.60;99.90
18506;DHT22;9382;53.242;10.438;2023-03-01T00:36:32;-2.60;99.90
18506;DHT22;9382;53.242;10.438;2023-03-01T00:39:00;-2.60;99.90
18506;DHT22;9382;53.242;10.438;2023-03-01T00:41:28;-2.70;99.90
18506;DHT22;9382;53.242;10.438;2023-03-01T00:43:55;-2.80;99.90
18506;DHT22;9382;53.242;10.438;2023-03-01T00:46:24;-2.70;99.90
18506;DHT22;9382;53.242;10.438;2023-03-01T00:48:51;-2.70;99.90
18506;DHT22;9382;53.242;10.438;2023-03-01T00:51:20;-2.80;99.90
18506;DHT22;9382;53.242;10.438;2023-03-01T00:53:49;-2.80;99.90
18506;DHT22;9382;53.242;10.438;2023-03-01T00:56:16;-2.90;99.90
18506;DHT22;9382;53.242;10.438;2023-03-01T00:58:44;-2.80;99.90
18506;DHT22;9382;53.242;10.438;2023-03-01T01:01:13;-2.90;99.90
18506;DHT22;9382;53.242;10.438;2023-03-01T01:03:44;-2.90;99.90
18506;DHT22;9382;53.242;10.438;2023-03-01T01:06:16;-2.90;99.90
18506;DHT22;9382;53.242;10.438;2023-03-01T01:08:43;-2.90;99.90
18506;DHT22;9382;53.242;10.438;2023-03-01T01:11:10;-3.00;99.90
18506;DHT22;9382;53.242;10.438;2023-03-01T01:13:37;-3.00;99.90
18506;DHT22;9382;53.242;10.438;2023-03-01T01:16:06;-3.10;99.90
18506;DHT22;9382;53.242;10.438;2023-03-01T01:18:33;-3.10;99.90
18506;DHT22;9382;53.242;10.438;2023-03-01T01:21:04;-3.10;99.90
18506;DHT22;9382;53.242;10.438;2023-03-01T01:23:31;-3.00;99.90
18506;DHT22;9382;53.242;10.438;2023-03-01T01:26:04;-3.00;99.90
18506;DHT22;9382;53.242;10.438;2023-03-01T01:28:31;-3.00;99.90
18506;DHT22;9382;53.242;10.438;2023-03-01T01:30:58;-3.00;99.90
18506;DHT22;9382;53.242;10.438;2023-03-01T01:33:27;-3.10;99.90
18506;DHT22;9382;53.242;10.438;2023-03-01T01:35:53;-3.10;99.90
18506;DHT22;9382;53.242;10.438;2023-03-01T01:38:20;-3.10;99.90
18506;DHT22;9382;53.242;10.438;2023-03-01T01:40:49;-3.20;99.90
18506;DHT22;9382;53.242;10.438;2023-03-01T01:43:19;-3.20;99.90
18506;DHT22;9382;53.242;10.438;2023-03-01T01:45:47;-3.20;99.90
18506;DHT22;9382;53.242;10.438;2023-03-01T01:48:18;-3.20;99.90
18506;DHT22;9382;53.242;10.438;2023-03-01T01:50:55;-3.20;99.90
18506;DHT22;9382;53.242;10.438;2023-03-01T01:53:24;-3.20;99.90
18506;DHT22;9382;53.242;10.438;2023-03-01T01:55:54;-3.30;99.90
18506;DHT22;9382;53.242;10.438;2023-03-01T01:58:24;-3.30;99.90
18506;DHT22;9382;53.242;10.438;2023-03-01T02:00:53;-3.40;99.90
18506;DHT22;9382;53.242;10.438;2023-03-01T02:03:24;-3.40;99.90
18506;DHT22;9382;53.242;10.438;2023-03-01T02:05:58;-3.30;99.90
18506;DHT22;9382;53.242;10.438;2023-03-01T02:08:29;-3.20;99.90
18506;DHT22;9382;53.242;10.438;2023-03-01T02:10:57;-3.20;99.90
18506;DHT22;9382;53.242;10.438;2023-03-01T02:13:25;-3.20;99.90
18506;DHT22;9382;53.242;10.438;2023-03-01T02:15:52;-3.20;99.90
18506;DHT22;9382;53.242;10.438;2023-03-01T02:18:21;-3.30;99.90
18506;DHT22;9382;53.242;10.438;2023-03-01T02:21:08;-3.30;99.90
18506;DHT22;9382;53.242;10.438;2023-03-01T02:23:38;-3.40;99.90
18506;DHT22;9382;53.242;10.438;2023-03-01T02:26:09;-3.40;99.90
18506;DHT22;9382;53.242;10.438;2023-03-01T02:28:41;-3.50;99.90
18506;DHT22;9382;53.242;10.438;2023-03-01T02:31:10;-3.50;99.90
18506;DHT22;9382;53.242;10.438;2023-03-01T02:33:58;-3.40;99.90
18506;DHT22;9382;53.242;10.438;2023-03-01T02:36:29;-3.40;99.90
18506;DHT22;9382;53.242;10.438;2023-03-01T02:38:58;-3.50;99.90
18506;DHT22;9382;53.242;10.438;2023-03-01T02:41:28;-3.50;99.90
18506;DHT22;9382;53.242;10.438;2023-03-01T02:43:58;-3.40;99.90
18506;DHT22;9382;53.242;10.438;2023-03-01T02:46:26;-3.50;99.90
18506;DHT22;9382;53.242;10.438;2023-03-01T02:48:54;-3.50;99.90
18506;DHT22;9382;53.242;10.438;2023-03-01T02:51:32;-3.60;99.90
18506;DHT22;9382;53.242;10.438;2023-03-01T02:54:08;-3.60;99.90
18506;DHT22;9382;53.242;10.438;2023-03-01T02:56:37;-3.50;99.90
18506;DHT22;9382;53.242;10.438;2023-03-01T02:59:05;-3.50;99.90
18506;DHT22;9382;53.242;10.438;2023-03-01T03:01:33;-3.50;99.90
18506;DHT22;9382;53.242;10.438;2023-03-01T03:04:04;-3.50;99.90
18506;DHT22;9382;53.242;10.438;2023-03-01T03:06:31;-3.60;99.90
18506;DHT22;9382;53.242;10.438;2023-03-01T03:08:58;-3.50;99.90
18506;DHT22;9382;53.242;10.438;2023-03-01T03:11:25;-3.60;99.90
18506;DHT22;9382;53.242;10.438;2023-03-01T03:13:52;-3.50;99.90
18506;DHT22;9382;53.242;10.438;2023-03-01T03:16:21;-3.50;99.90
18506;DHT22;9382;53.242;10.438;2023-03-01T03:18:48;-3.50;99.90
18506;DHT22;9382;53.242;10.438;2023-03-01T03:21:15;-3.60;99.90
18506;DHT22;9382;53.242;10.438;2023-03-01T03:23:43;-3.60;99.90
18506;DHT22;9382;53.242;10.438;2023-03-01T03:26:10;-3.60;99.90
18506;DHT22;9382;53.242;10.438;2023-03-01T03:28:39;-3.60;99.90
18506;DHT22;9382;53.242;10.438;2023-03-01T03:31:06;-3.60;99.90
18506;DHT22;9382;53.242;10.438;2023-03-01T03:33:35;-3.70;99.90
18506;DHT22;9382;53.242;10.438;2023-03-01T03:36:02;-3.70;99.90
18506;DHT22;9382;53.242;10.438;2023-03-01T03:38:29;-3.70;99.90
18506;DHT22;9382;53.242;10.438;2023-03-01T03:41:01;-3.70;99.90
18506;DHT22;9382;53.242;10.438;2023-03-01T03:43:30;-3.80;99.90
18506;DHT22;9382;53.242;10.438;2023-03-01T03:45:57;-3.80;99.90
18506;DHT22;9382;53.242;10.438;2023-03-01T03:48:25;-3.80;99.90
18506;DHT22;9382;53.242;10.438;2023-03-01T03:50:54;-3.80;99.90
18506;DHT22;9382;53.242;10.438;2023-03-01T03:53:23;-3.90;99.90
18506;DHT22;9382;53.242;10.438;2023-03-01T03:55:51;-3.90;99.90
18506;DHT22;9382;53.242;10.438;2023-03-01T03:58:19;-3.80;99.90
18506;DHT22;9382;53.242;10.438;2023-03-01T04:00:47;-3.90;99.90
18506;DHT22;9382;53.242;10.438;2023-03-01T04:03:16;-3.90;99.90
18506;DHT22;9382;53.242;10.438;2023-03-01T04:05:46;-4.00;99.90
18506;DHT22;9382;53.242;10.438;2023-03-01T04:08:14;-3.90;99.90
18506;DHT22;9382;53.242;10.438;2023-03-01T04:10:45;-3.90;99.90
18506;DHT22;9382;53.242;10.438;2023-03-01T04:13:14;-3.90;99.90
18506;DHT22;9382;53.242;10.438;2023-03-01T04:15:41;-3.90;99.90
18506;DHT22;9382;53.242;10.438;2023-03-01T04:18:10;-3.90;99.90
18506;DHT22;9382;53.242;10.438;2023-03-01T04:20:38;-3.90;99.90
18506;DHT22;9382;53.242;10.438;2023-03-01T04:23:06;-3.80;99.90
18506;DHT22;9382;53.242;10.438;2023-03-01T04:25:41;-3.90;99.90
18506;DHT22;9382;53.242;10.438;2023-03-01T04:28:08;-3.90;99.90
18506;DHT22;9382;53.242;10.438;2023-03-01T04:30:36;-4.00;99.90
18506;DHT22;9382;53.242;10.438;2023-03-01T04:33:03;-3.90;99.90
18506;DHT22;9382;53.242;10.438;2023-03-01T04:35:30;-4.00;99.90
18506;DHT22;9382;53.242;10.438;2023-03-01T04:37:57;-4.00;99.90
18506;DHT22;9382;53.242;10.438;2023-03-01T04:40:25;-4.00;99.90
18506;DHT22;9382;53.242;10.438;2023-03-01T04:42:53;-3.90;99.90
18506;DHT22;9382;53.242;10.438;2023-03-01T04:45:20;-4.00;99.90
18506;DHT22;9382;53.242;10.438;2023-03-01T04:47:47;-3.90;99.90
18506;DHT22;9382;53.242;10.438;2023-03-01T04:50:15;-4.00;99.90
18506;DHT22;9382;53.242;10.438;2023-03-01T04:52:42;-4.00;99.90
18506;DHT22;9382;53.242;10.438;2023-03-01T04:55:09;-3.90;99.90
18506;DHT22;9382;53.242;10.438;2023-03-01T04:57:36;-3.90;99.90
18506;DHT22;9382;53.242;10.438;2023-03-01T05:00:08;-4.00;99.90
18506;DHT22;9382;53.242;10.438;2023-03-01T05:02:46;-4.00;99.90
18506;DHT22;9382;53.242;10.438;2023-03-01T05:05:13;-4.00;99.90
18506;DHT22;9382;53.242;10.438;2023-03-01T05:07:40;-4.00;99.90
18506;DHT22;9382;53.242;10.438;2023-03-01T05:10:08;-4.00;99.90
18506;DHT22;9382;53.242;10.438;2023-03-01T05:12:35;-4.00;99.90
18506;DHT22;9382;53.242;10.438;2023-03-01T05:15:05;-3.90;99.90
18506;DHT22;9382;53.242;10.438;2023-03-01T05:17:32;-4.00;99.90
18506;DHT22;9382;53.242;10.438;2023-03-01T05:19:59;-4.00;99.90
18506;DHT22;9382;53.242;10.438;2023-03-01T05:22:26;-4.00;99.90
18506;DHT22;9382;53.242;10.438;2023-03-01T05:24:53;-4.00;99.90
18506;DHT22;9382;53.242;10.438;2023-03-01T05:27:20;-4.00;99.90
18506;DHT22;9382;53.242;10.438;2023-03-01T05:29:48;-3.90;99.90
18506;DHT22;9382;53.242;10.438;2023-03-01T05:32:16;-3.90;99.90
18506;DHT22;9382;53.242;10.438;2023-03-01T05:34:42;-4.00;99.90
18506;DHT22;9382;53.242;10.438;2023-03-01T05:37:11;-4.00;99.90
18506;DHT22;9382;53.242;10.438;2023-03-01T05:39:39;-4.00;99.90
18506;DHT22;9382;53.242;10.438;2023-03-01T05:42:10;-3.90;99.90
18506;DHT22;9382;53.242;10.438;2023-03-01T05:44:37;-3.80;99.90
18506;DHT22;9382;53.242;10.438;2023-03-01T05:47:04;-4.00;99.90
18506;DHT22;9382;53.242;10.438;2023-03-01T05:49:33;-3.90;99.90
18506;DHT22;9382;53.242;10.438;2023-03-01T05:52:00;-3.90;99.90
18506;DHT22;9382;53.242;10.438;2023-03-01T05:54:26;-3.90;99.90
18506;DHT22;9382;53.242;10.438;2023-03-01T05:56:53;-3.90;99.90
18506;DHT22;9382;53.242;10.438;2023-03-01T05:59:20;-3.90;99.90
18506;DHT22;9382;53.242;10.438;2023-03-01T06:01:47;-3.80;99.90
18506;DHT22;9382;53.242;10.438;2023-03-01T06:04:13;-3.70;99.90
18506;DHT22;9382;53.242;10.438;2023-03-01T06:06:41;-3.50;99.90
18506;DHT22;9382;53.242;10.438;2023-03-01T06:09:09;-3.50;99.90
18506;DHT22;9382;53.242;10.438;2023-03-01T06:11:36;-3.40;99.90
18506;DHT22;9382;53.242;10.438;2023-03-01T06:14:03;-3.30;99.90
18506;DHT22;9382;53.242;10.438;2023-03-01T06:16:31;-3.30;99.90
18506;DHT22;9382;53.242;10.438;2023-03-01T06:18:58;-3.10;99.90
18506;DHT22;9382;53.242;10.438;2023-03-01T06:21:25;-3.10;99.90
18506;DHT22;9382;53.242;10.438;2023-03-01T06:23:53;-3.10;99.90
18506;DHT22;9382;53.242;10.438;2023-03-01T06:26:20;-3.00;99.90
18506;DHT22;9382;53.242;10.438;2023-03-01T06:28:46;-2.90;99.90
18506;DHT22;9382;53.242;10.438;2023-03-01T06:31:13;-2.70;99.90
18506;DHT22;9382;53.242;10.438;2023-03-01T06:33:40;-2.60;99.90
18506;DHT22;9382;53.242;10.438;2023-03-01T06:36:08;-2.50;99.90
18506;DHT22;9382;53.242;10.438;2023-03-01T06:38:35;-2.50;99.90
18506;DHT22;9382;53.242;10.438;2023-03-01T06:41:04;-2.40;99.90
18506;DHT22;9382;53.242;10.438;2023-03-01T06:43:30;-2.40;99.90
18506;DHT22;9382;53.242;10.438;2023-03-01T06:45:57;-2.30;99.90
18506;DHT22;9382;53.242;10.438;2023-03-01T06:48:24;-2.30;99.90
18506;DHT22;9382;53.242;10.438;2023-03-01T06:50:51;-2.20;99.90
18506;DHT22;9382;53.242;10.438;2023-03-01T06:53:17;-2.20;99.90
18506;DHT22;9382;53.242;10.438;2023-03-01T06:55:44;-2.00;99.90
18506;DHT22;9382;53.242;10.438;2023-03-01T06:58:12;-1.90;99.90
18506;DHT22;9382;53.242;10.438;2023-03-01T07:00:39;-1.80;99.90
18506;DHT22;9382;53.242;10.438;2023-03-01T07:03:06;-1.80;99.90
18506;DHT22;9382;53.242;10.438;2023-03-01T07:05:33;-1.70;99.90
18506;DHT22;9382;53.242;10.438;2023-03-01T07:08:00;-1.60;99.90
18506;DHT22;9382;53.242;10.438;2023-03-01T07:10:27;-1.50;99.90
18506;DHT22;9382;53.242;10.438;2023-03-01T07:12:55;-1.40;99.90
18506;DHT22;9382;53.242;10.438;2023-03-01T07:15:23;-1.30;99.90
18506;DHT22;9382;53.242;10.438;2023-03-01T07:17:50;-1.20;99.90
18506;DHT22;9382;53.242;10.438;2023-03-01T07:20:18;-1.10;99.90
18506;DHT22;9382;53.242;10.438;2023-03-01T07:22:47;-1.00;99.90
18506;DHT22;9382;53.242;10.438;2023-03-01T07:25:14;-0.90;99.90
18506;DHT22;9382;53.242;10.438;2023-03-01T07:27:41;-0.80;99.90
18506;DHT22;9382;53.242;10.438;2023-03-01T07:30:09;-0.70;99.90
18506;DHT22;9382;53.242;10.438;2023-03-01T07:32:37;-0.60;99.90
18506;DHT22;9382;53.242;10.438;2023-03-01T07:35:05;-0.50;99.90
18506;DHT22;9382;53.242;10.438;2023-03-01T07:37:32;-0.40;99.90
18506;DHT22;9382;53.242;10.438;2023-03-01T07:39:59;-0.30;99.90
18506;DHT22;9382;53.242;10.438;2023-03-01T07:42:25;-0.20;99.90
18506;DHT22;9382;53.242;10.438;2023-03-01T07:44:52;-0.10;99.90
18506;DHT22;9382;53.242;10.438;2023-03-01T07:47:19;0.00;99.90
18506;DHT22;9382;53.242;10.438;2023-03-01T07:49:47;0.10;99.90
18506;DHT22;9382;53.242;10.438;2023-03-01T07:52:13;0.20;99.90
18506;DHT22;9382;53.242;10.438;2023-03-01T07:54:43;0.30;99.90
18506;DHT22;9382;53.242;10.438;2023-03-01T07:57:10;0.40;99.90
18506;DHT22;9382;53.242;10.438;2023-03-01T07:59:37;0.50;99.90
18506;DHT22;9382;53.242;10.438;2023-03-01T08:02:04;0.60;99.90
18506;DHT22;9382;53.242;10.438;2023-03-01T08:04:31;0.70;99.90
18506;DHT22;9382;53.242;10.438;2023-03-01T08:07:00;0.80;99.90
18506;DHT22;9382;53.242;10.438;2023-03-01T08:09:26;0.90;99.90
18506;DHT22;9382;53.242;10.438;2023-03-01T08:11:53;1.00;99.90
18506;DHT22;9382;53.242;10.438;2023-03-01T08:14:20;1.10;99.90
18506;DHT22;9382;53.242;10.438;2023-03-01T08:16:49;1.10;99.90
18506;DHT22;9382;53.242;10.438;2023-03-01T08:19:16;1.10;99.90
18506;DHT22;9382;53.242;10.438;2023-03-01T08:21:43;1.20;99.90
18506;DHT22;9382;53.242;10.438;2023-03-01T08:24:11;1.30;99.90
18506;DHT22;9382;53.242;10.438;2023-03-01T08:26:37;1.40;99.90
18506;DHT22;9382;53.242;10.438;2023-03-01T08:29:04;1.60;99.90
18506;DHT22;9382;53.242;10.438;2023-03-01T08:31:33;1.70;99.90
18506;DHT22;9382;53.242;10.438;2023-03-01T08:34:02;1.80;99.90
18506;DHT22;9382;53.242;10.438;2023-03-01T08:36:31;1.90;99.90
18506;DHT22;9382;53.242;10.438;2023-03-01T08:38:58;2.00;99.90
18506;DHT22;9382;53.242;10.438;2023-03-01T08:41:27;2.20;99.90
18506;DHT22;9382;53.242;10.438;2023-03-01T08:43:54;2.30;99.90
18506;DHT22;9382;53.242;10.438;2023-03-01T08:46:24;2.50;99.90
18506;DHT22;9382;53.242;10.438;2023-03-01T08:48:51;2.60;99.90
18506;DHT22;9382;53.242;10.438;2023-03-01T08:51:19;2.80;99.90
18506;DHT22;9382;53.242;10.438;2023-03-01T08:53:46;3.00;99.90
18506;DHT22;9382;53.242;10.438;2023-03-01T08:56:13;3.20;99.90
18506;DHT22;9382;53.242;10.438;2023-03-01T08:58:43;3.40;99.90
18506;DHT22;9382;53.242;10.438;2023-03-01T09:01:12;3.70;99.90
18506;DHT22;9382;53.242;10.438;2023-03-01T09:03:39;3.90;99.90
18506;DHT22;9382;53.242;10.438;2023-03-01T09:06:07;4.00;99.90
18506;DHT22;9382;53.242;10.438;2023-03-01T09:08:35;4.10;99.90
18506;DHT22;9382;53.242;10.438;2023-03-01T09:11:02;4.20;99.90
18506;DHT22;9382;53.242;10.438;2023-03-01T09:13:28;4.30;99.90
18506;DHT22;9382;53.242;10.438;2023-03-01T09:15:58;4.60;99.90
18506;DHT22;9382;53.242;10.438;2023-03-01T09:18:25;4.80;99.90
18506;DHT22;9382;53.242;10.438;2023-03-01T09:20:51;4.80;99.90
18506;DHT22;9382;53.242;10.438;2023-03-01T09:23:20;5.20;99.90
18506;DHT22;9382;53.242;10.438;2023-03-01T09:25:47;5.40;99.90
18506;DHT22;9382;53.242;10.438;2023-03-01T09:28:13;5.70;99.90
18506;DHT22;9382;53.242;10.438;2023-03-01T09:30:40;5.90;99.90
18506;DHT22;9382;53.242;10.438;2023-03-01T09:33:08;6.10;99.90
18506;DHT22;9382;53.242;10.438;2023-03-01T09:35:40;6.10;99.90
18506;DHT22;9382;53.242;10.438;2023-03-01T09:38:11;6.10;99.90
18506;DHT22;9382;53.242;10.438;2023-03-01T09:40:42;6.20;99.90
18506;DHT22;9382;53.242;10.438;2023-03-01T09:43:18;6.20;99.90
18506;DHT22;9382;53.242;10.438;2023-03-01T09:45:47;6.30;99.90
18506;DHT22;9382;53.242;10.438;2023-03-01T09:48:19;6.60;99.90
18506;DHT22;9382;53.242;10.438;2023-03-01T09:50:49;6.80;99.90
18506;DHT22;9382;53.242;10.438;2023-03-01T09:53:18;6.70;99.90
18506;DHT22;9382;53.242;10.438;2023-03-01T09:55:49;6.70;99.90
18506;DHT22;9382;53.242;10.438;2023-03-01T09:58:31;7.00;99.90
18506;DHT22;9382;53.242;10.438;2023-03-01T10:01:10;7.30;99.90
18506;DHT22;9382;53.242;10.438;2023-03-01T10:03:43;7.70;99.90
18506;DHT22;9382;53.242;10.438;2023-03-01T10:06:15;7.90;99.90
18506;DHT22;9382;53.242;10.438;2023-03-01T10:08:52;7.90;99.90
18506;DHT22;9382;53.242;10.438;2023-03-01T10:11:24;7.90;99.90
18506;DHT22;9382;53.242;10.438;2023-03-01T10:13:56;8.10;99.90
18506;DHT22;9382;53.242;10.438;2023-03-01T10:16:28;8.20;99.90
18506;DHT22;9382;53.242;10.438;2023-03-01T10:19:03;8.40;99.90
18506;DHT22;9382;53.242;10.438;2023-03-01T10:21:36;8.60;99.90
18506;DHT22;9382;53.242;10.438;2023-03-01T10:24:10;9.00;99.90
18506;DHT22;9382;53.242;10.438;2023-03-01T10:26:44;9.20;99.90
18506;DHT22;9382;53.242;10.438;2023-03-01T10:29:13;9.40;99.90
18506;DHT22;9382;53.242;10.438;2023-03-01T10:31:43;9.70;99.90
18506;DHT22;9382;53.242;10.438;2023-03-01T10:34:14;9.90;99.90
18506;DHT22;9382;53.242;10.438;2023-03-01T10:36:42;9.70;99.90
18506;DHT22;9382;53.242;10.438;2023-03-01T10:39:15;9.60;99.90
18506;DHT22;9382;53.242;10.438;2023-03-01T10:41:53;9.40;99.90
18506;DHT22;9382;53.242;10.438;2023-03-01T10:44:42;9.40;99.90
18506;DHT22;9382;53.242;10.438;2023-03-01T10:47:19;9.60;99.90
18506;DHT22;9382;53.242;10.438;2023-03-01T10:50:02;9.80;99.90
18506;DHT22;9382;53.242;10.438;2023-03-01T10:52:32;9.80;99.90
18506;DHT22;9382;53.242;10.438;2023-03-01T10:55:02;9.70;99.90
18506;DHT22;9382;53.242;10.438;2023-03-01T10:57:32;9.70;99.90
18506;DHT22;9382;53.242;10.438;2023-03-01T11:00:18;9.80;99.90
18506;DHT22;9382;53.242;10.438;2023-03-01T11:02:48;9.80;99.90
18506;DHT22;9382;53.242;10.438;2023-03-01T11:05:20;9.90;99.90
18506;DHT22;9382;53.242;10.438;2023-03-01T11:07:51;10.00;99.90
18506;DHT22;9382;53.242;10.438;2023-03-01T11:10:20;10.10;99.90
18506;DHT22;9382;53.242;10.438;2023-03-01T11:12:47;10.20;99.90
18506;DHT22;9382;53.242;10.438;2023-03-01T11:15:24;10.20;99.90
18506;DHT22;9382;53.242;10.438;2023-03-01T11:17:52;10.20;99.90
18506;DHT22;9382;53.242;10.438;2023-03-01T11:20:25;10.60;99.90
18506;DHT22;9382;53.242;10.438;2023-03-01T11:22:55;11.00;99.90
18506;DHT22;9382;53.242;10.438;2023-03-01T11:25:25;11.50;99.90
18506;DHT22;9382;53.242;10.438;2023-03-01T11:27:54;11.70;99.90
18506;DHT22;9382;53.242;10.438;2023-03-01T11:30:25;12.10;99.90
18506;DHT22;9382;53.242;10.438;2023-03-01T11:33:03;12.30;99.90
18506;DHT22;9382;53.242;10.438;2023-03-01T11:35:34;12.80;99.90
18506;DHT22;9382;53.242;10.438;2023-03-01T11:38:15;13.20;99.90
18506;DHT22;9382;53.242;10.438;2023-03-01T11:40:46;13.60;99.90
18506;DHT22;9382;53.242;10.438;2023-03-01T11:43:19;14.10;99.90
18506;DHT22;9382;53.242;10.438;2023-03-01T11:46:27;14.40;99.90
18506;DHT22;9382;53.242;10.438;2023-03-01T11:49:08;14.60;99.90
18506;DHT22;9382;53.242;10.438;2023-03-01T11:51:45;15.10;99.90
18506;DHT22;9382;53.242;10.438;2023-03-01T11:54:25;15.60;99.90
18506;DHT22;9382;53.242;10.438;2023-03-01T11:56:59;16.00;99.90
18506;DHT22;9382;53.242;10.438;2023-03-01T12:02:44;16.30;99.90
18506;DHT22;9382;53.242;10.438;2023-03-01T12:05:38;16.60;99.90
18506;DHT22;9382;53.242;10.438;2023-03-01T12:08:19;17.20;99.90
18506;DHT22;9382;53.242;10.438;2023-03-01T12:10:55;17.60;99.90
18506;DHT22;9382;53.242;10.438;2023-03-01T12:13:35;17.90;99.90
18506;DHT22;9382;53.242;10.438;2023-03-01T12:16:15;17.90;99.90
18506;DHT22;9382;53.242;10.438;2023-03-01T12:19:06;17.90;99.90
18506;DHT22;9382;53.242;10.438;2023-03-01T12:21:53;18.50;99.90
18506;DHT22;9382;53.242;10.438;2023-03-01T12:24:51;18.30;99.90
18506;DHT22;9382;53.242;10.438;2023-03-01T12:30:28;19.20;99.90
18506;DHT22;9382;53.242;10.438;2023-03-01T12:33:06;18.90;99.90
18506;DHT22;9382;53.242;10.438;2023-03-01T12:35:53;18.80;99.90
18506;DHT22;9382;53.242;10.438;2023-03-01T12:38:32;19.00;99.90
18506;DHT22;9382;53.242;10.438;2023-03-01T12:41:26;19.00;99.90
18506;DHT22;9382;53.242;10.438;2023-03-01T12:44:04;17.70;99.90
18506;DHT22;9382;53.242;10.438;2023-03-01T12:46:46;16.10;99.90
18506;DHT22;9382;53.242;10.438;2023-03-01T12:49:20;16.50;99.90
18506;DHT22;9382;53.242;10.438;2023-03-01T12:51:54;17.50;99.90
18506;DHT22;9382;53.242;10.438;2023-03-01T12:54:26;18.40;99.90
18506;DHT22;9382;53.242;10.438;2023-03-01T12:56:56;19.20;99.90
18506;DHT22;9382;53.242;10.438;2023-03-01T12:59:28;19.90;99.90
18506;DHT22;9382;53.242;10.438;2023-03-01T13:02:03;20.30;99.90
18506;DHT22;9382;53.242;10.438;2023-03-01T13:04:40;20.70;99.90
18506;DHT22;9382;53.242;10.438;2023-03-01T13:07:23;20.60;99.90
18506;DHT22;9382;53.242;10.438;2023-03-01T13:09:59;20.50;99.90
18506;DHT22;9382;53.242;10.438;2023-03-01T13:12:53;20.50;99.90
18506;DHT22;9382;53.242;10.438;2023-03-01T13:15:32;21.00;99.90
18506;DHT22;9382;53.242;10.438;2023-03-01T13:18:02;21.40;99.90
18506;DHT22;9382;53.242;10.438;2023-03-01T13:20:32;21.70;99.90
18506;DHT22;9382;53.242;10.438;2023-03-01T13:23:10;21.90;99.90
18506;DHT22;9382;53.242;10.438;2023-03-01T13:26:00;22.20;99.90
18506;DHT22;9382;53.242;10.438;2023-03-01T13:28:54;22.10;99.50
18506;DHT22;9382;53.242;10.438;2023-03-01T13:34:41;22.20;98.80
18506;DHT22;9382;53.242;10.438;2023-03-01T13:37:09;21.80;99.00
18506;DHT22;9382;53.242;10.438;2023-03-01T13:39:40;21.50;99.90
18506;DHT22;9382;53.242;10.438;2023-03-01T13:42:30;21.10;99.90
18506;DHT22;9382;53.242;10.438;2023-03-01T13:44:59;22.00;99.40
18506;DHT22;9382;53.242;10.438;2023-03-01T13:47:27;22.50;99.10
18506;DHT22;9382;53.242;10.438;2023-03-01T13:49:57;22.70;97.80
18506;DHT22;9382;53.242;10.438;2023-03-01T13:52:43;23.10;97.90
18506;DHT22;9382;53.242;10.438;2023-03-01T13:55:17;23.00;97.50
18506;DHT22;9382;53.242;10.438;2023-03-01T13:57:47;23.30;95.60
18506;DHT22;9382;53.242;10.438;2023-03-01T14:00:41;23.20;94.60
18506;DHT22;9382;53.242;10.438;2023-03-01T14:03:13;22.90;93.70
18506;DHT22;9382;53.242;10.438;2023-03-01T14:05:42;22.70;93.90
18506;DHT22;9382;53.242;10.438;2023-03-01T14:08:21;22.50;94.40
18506;DHT22;9382;53.242;10.438;2023-03-01T14:10:57;22.30;93.10
18506;DHT22;9382;53.242;10.438;2023-03-01T14:13:40;22.30;93.90
18506;DHT22;9382;53.242;10.438;2023-03-01T14:16:22;22.40;93.00
18506;DHT22;9382;53.242;10.438;2023-03-01T14:18:56;21.30;92.90
18506;DHT22;9382;53.242;10.438;2023-03-01T14:21:25;19.60;96.30
18506;DHT22;9382;53.242;10.438;2023-03-01T14:23:53;18.90;96.00
18506;DHT22;9382;53.242;10.438;2023-03-01T14:26:21;18.40;98.10
18506;DHT22;9382;53.242;10.438;2023-03-01T14:28:49;19.30;96.40
18506;DHT22;9382;53.242;10.438;2023-03-01T14:31:47;20.60;95.30
18506;DHT22;9382;53.242;10.438;2023-03-01T14:34:19;21.60;95.90
18506;DHT22;9382;53.242;10.438;2023-03-01T14:36:47;22.30;94.60
18506;DHT22;9382;53.242;10.438;2023-03-01T14:39:18;22.80;94.10
18506;DHT22;9382;53.242;10.438;2023-03-01T14:41:45;23.30;93.00
18506;DHT22;9382;53.242;10.438;2023-03-01T14:44:15;23.40;92.20
18506;DHT22;9382;53.242;10.438;2023-03-01T14:46:44;23.00;94.30
18506;DHT22;9382;53.242;10.438;2023-03-01T14:49:14;23.00;91.90
18506;DHT22;9382;53.242;10.438;2023-03-01T14:51:55;22.60;91.00
18506;DHT22;9382;53.242;10.438;2023-03-01T14:54:25;21.60;92.10
18506;DHT22;9382;53.242;10.438;2023-03-01T14:56:54;21.70;91.90
18506;DHT22;9382;53.242;10.438;2023-03-01T14:59:24;21.50;93.40
18506;DHT22;9382;53.242;10.438;2023-03-01T15:01:52;21.20;93.60
18506;DHT22;9382;53.242;10.438;2023-03-01T15:04:22;21.40;92.30
18506;DHT22;9382;53.242;10.438;2023-03-01T15:06:51;21.30;92.00
18506;DHT22;9382;53.242;10.438;2023-03-01T15:09:18;21.00;92.20
18506;DHT22;9382;53.242;10.438;2023-03-01T15:11:45;20.90;93.20
18506;DHT22;9382;53.242;10.438;2023-03-01T15:14:36;20.90;94.00
18506;DHT22;9382;53.242;10.438;2023-03-01T15:17:26;19.70;94.00
18506;DHT22;9382;53.242;10.438;2023-03-01T15:19:55;18.80;95.50
18506;DHT22;9382;53.242;10.438;2023-03-01T15:22:23;19.00;95.00
18506;DHT22;9382;53.242;10.438;2023-03-01T15:24:51;19.60;95.40
18506;DHT22;9382;53.242;10.438;2023-03-01T15:27:19;20.00;93.90
18506;DHT22;9382;53.242;10.438;2023-03-01T15:29:49;20.50;94.70
18506;DHT22;9382;53.242;10.438;2023-03-01T15:32:30;20.50;94.50
18506;DHT22;9382;53.242;10.438;2023-03-01T15:35:00;20.90;93.20
18506;DHT22;9382;53.242;10.438;2023-03-01T15:37:40;20.80;92.90
18506;DHT22;9382;53.242;10.438;2023-03-01T15:40:22;20.40;94.40
18506;DHT22;9382;53.242;10.438;2023-03-01T15:42:56;20.50;93.30
18506;DHT22;9382;53.242;10.438;2023-03-01T15:45:25;20.50;93.90
18506;DHT22;9382;53.242;10.438;2023-03-01T15:47:54;20.60;93.10
18506;DHT22;9382;53.242;10.438;2023-03-01T15:50:27;20.30;94.40
18506;DHT22;9382;53.242;10.438;2023-03-01T15:52:55;20.10;93.40
18506;DHT22;9382;53.242;10.438;2023-03-01T15:55:24;19.80;93.30
18506;DHT22;9382;53.242;10.438;2023-03-01T15:57:59;19.30;94.10
18506;DHT22;9382;53.242;10.438;2023-03-01T16:00:27;17.90;95.80
18506;DHT22;9382;53.242;10.438;2023-03-01T16:02:54;16.30;97.80
18506;DHT22;9382;53.242;10.438;2023-03-01T16:05:23;15.10;99.30
18506;DHT22;9382;53.242;10.438;2023-03-01T16:07:51;14.00;99.90